Time;durP1;ratioP1;P1;durP2;ratioP2;P2;SDS_P1;SDS_P2;PMS_P1;PMS_P2;Temp;Humidity;BMP_temperature;BMP_pressure;BME280_temperature;BME280_humidity;BME280_pressure;Samples;Min_cycle;Max_cycle;Signal;HPM_P1;HPM_P2
2021/04/03 00:00:00;;;;;;;10.30;0.70;;;5.00;99.90;;;;;;5027058;28;20036;-77
2021/04/03 00:02:25;;;;;;;13.40;0.80;;;5.10;99.90;;;;;;5043709;28;20025;-77
2021/04/03 00:04:51;;;;;;;10.63;0.40;;;5.10;99.90;;;;;;5054644;28;20063;-77
2021/04/03 00:07:17;;;;;;;10.70;0.40;;;5.10;99.90;;;;;;5046539;28;20052;-77
2021/04/03 00:09:42;;;;;;;10.15;0.50;;;5.10;99.90;;;;;;5064262;28;20159;-77
2021/04/03 00:12:09;;;;;;;11.30;0.77;;;5.10;99.90;;;;;;5047136;28;20033;-77
2021/04/03 00:14:35;;;;;;;11.15;0.50;;;5.10;99.90;;;;;;5046897;28;20033;-77
2021/04/03 00:17:01;;;;;;;8.50;0.60;;;5.10;99.90;;;;;;5067616;28;20036;-77
2021/04/03 00:19:26;;;;;;;11.07;0.60;;;5.10;99.90;;;;;;5068444;28;20080;-77
2021/04/03 00:21:52;;;;;;;7.18;0.75;;;5.10;99.90;;;;;;5050539;28;20056;-77
2021/04/03 00:24:17;;;;;;;8.00;0.50;;;5.10;99.90;;;;;;5048748;28;20021;-77
2021/04/03 00:26:43;;;;;;;9.88;1.23;;;5.10;99.90;;;;;;5068266;28;20397;-77
2021/04/03 00:29:09;;;;;;;8.15;0.50;;;5.10;99.90;;;;;;5068490;28;20099;-77
2021/04/03 00:31:34;;;;;;;8.40;0.40;;;5.10;99.90;;;;;;5049808;28;20102;-77
2021/04/03 00:34:00;;;;;;;11.60;0.60;;;5.10;99.90;;;;;;5067093;28;20084;-76
2021/04/03 00:36:26;;;;;;;9.27;0.38;;;5.10;99.90;;;;;;5066900;28;20029;-77
2021/04/03 00:38:51;;;;;;;6.10;0.75;;;5.10;99.90;;;;;;5048133;28;20033;-77
2021/04/03 00:41:17;;;;;;;18.45;1.85;;;5.10;99.90;;;;;;5047000;28;20030;-77
2021/04/03 00:43:42;;;;;;;10.57;0.50;;;5.10;99.90;;;;;;5048348;28;20026;-77
2021/04/03 00:46:08;;;;;;;13.98;0.60;;;5.10;99.90;;;;;;5048927;28;20033;-77
2021/04/03 00:48:34;;;;;;;8.43;0.55;;;5.10;99.90;;;;;;5029995;28;20037;-77
2021/04/03 00:51:01;;;;;;;10.60;0.82;;;5.10;99.90;;;;;;5035105;28;20037;-77
2021/04/03 00:53:28;;;;;;;12.73;0.50;;;5.10;99.90;;;;;;5049898;28;20079;-77
2021/04/03 00:56:05;;;;;;;7.03;0.38;;;5.10;99.90;;;;;;5034751;28;20033;-77
2021/04/03 00:58:31;;;;;;;10.30;0.80;;;5.10;99.90;;;;;;5049671;28;20052;-77
2021/04/03 01:00:58;;;;;;;8.80;0.50;;;5.10;99.90;;;;;;5049621;28;20051;-76
2021/04/03 01:03:27;;;;;;;4.93;0.65;;;5.10;99.90;;;;;;5033669;28;20097;-77
2021/04/03 01:05:58;;;;;;;7.07;0.40;;;5.10;99.90;;;;;;5067359;28;20057;-77
2021/04/03 01:08:26;;;;;;;11.52;0.52;;;5.10;99.90;;;;;;5048369;28;20059;-77
2021/04/03 01:10:55;;;;;;;7.53;0.40;;;5.10;99.90;;;;;;5049425;28;20017;-77
2021/04/03 01:13:40;;;;;;;6.85;0.32;;;5.10;99.90;;;;;;5049299;28;20043;-77
2021/04/03 01:16:37;;;;;;;10.85;0.90;;;5.10;99.90;;;;;;5049268;28;20055;-77
2021/04/03 01:19:41;;;;;;;9.10;0.40;;;5.10;99.90;;;;;;5049084;28;20061;-76
2021/04/03 01:22:39;;;;;;;15.00;0.75;;;5.20;99.90;;;;;;5033321;28;20036;-77
2021/04/03 01:25:49;;;;;;;8.30;0.40;;;5.10;99.90;;;;;;5032608;28;20093;-76
2021/04/03 01:28:35;;;;;;;7.00;0.43;;;5.20;99.90;;;;;;4972405;28;20069;-77
2021/04/03 01:31:03;;;;;;;7.57;0.50;;;5.20;99.90;;;;;;5049252;28;20045;-77
2021/04/03 01:33:31;;;;;;;8.88;0.60;;;5.20;99.90;;;;;;5049048;28;20029;-77
2021/04/03 01:36:03;;;;;;;10.55;0.50;;;5.20;99.90;;;;;;5034304;28;20036;-77
2021/04/03 01:38:36;;;;;;;8.15;0.65;;;5.20;99.90;;;;;;5028987;28;20041;-77
2021/04/03 01:41:05;;;;;;;11.30;0.77;;;5.20;99.90;;;;;;5045567;28;20033;-76
2021/04/03 01:43:44;;;;;;;12.25;0.50;;;5.20;99.90;;;;;;5013520;28;20112;-77
2021/04/03 01:46:14;;;;;;;7.57;0.77;;;5.30;99.90;;;;;;5012705;28;20037;-76
2021/04/03 01:48:42;;;;;;;12.10;1.48;;;5.20;99.90;;;;;;5028840;28;20040;-77
2021/04/03 01:51:14;;;;;;;13.00;0.55;;;5.30;99.90;;;;;;5031528;28;20026;-76
2021/04/03 01:53:42;;;;;;;13.55;0.50;;;5.30;99.90;;;;;;5045327;28;20084;-77
2021/04/03 01:56:12;;;;;;;9.07;0.55;;;5.30;99.90;;;;;;5028969;28;20108;-76
2021/04/03 01:58:41;;;;;;;9.77;0.40;;;5.30;99.90;;;;;;5028900;28;20112;-76
2021/04/03 02:01:10;;;;;;;10.65;0.40;;;5.40;99.90;;;;;;5045097;28;20068;-77
2021/04/03 02:03:38;;;;;;;11.15;0.40;;;5.40;99.90;;;;;;5044930;28;20063;-77
2021/04/03 02:06:08;;;;;;;8.35;0.50;;;5.40;99.90;;;;;;5028777;28;20463;-77
2021/04/03 02:08:48;;;;;;;11.38;1.02;;;5.40;99.90;;;;;;5028516;28;20624;-77
2021/04/03 02:11:51;;;;;;;5.43;0.60;;;5.40;99.90;;;;;;5023903;28;20036;-76
2021/04/03 02:14:46;;;;;;;9.88;0.50;;;5.40;99.90;;;;;;5043074;28;20090;-77
2021/04/03 02:17:17;;;;;;;8.93;0.57;;;5.40;99.90;;;;;;5028301;28;20040;-77
2021/04/03 02:19:44;;;;;;;13.40;1.02;;;5.40;99.90;;;;;;5012054;28;20033;-77
2021/04/03 02:22:19;;;;;;;8.48;0.55;;;5.50;99.90;;;;;;5045110;28;20039;-77
2021/04/03 02:24:49;;;;;;;11.02;0.73;;;5.40;99.90;;;;;;5028271;28;20098;-77
2021/04/03 02:27:17;;;;;;;10.90;0.88;;;5.40;99.90;;;;;;5028247;28;20061;-76
2021/04/03 02:29:45;;;;;;;15.20;0.70;;;5.40;99.90;;;;;;5028170;28;20484;-76
2021/04/03 02:32:12;;;;;;;10.98;1.25;;;5.40;99.90;;;;;;5012195;28;20071;-77
2021/04/03 02:34:37;;;;;;;15.15;0.73;;;5.40;99.90;;;;;;5047882;28;20078;-77
2021/04/03 02:37:04;;;;;;;8.07;0.30;;;5.40;99.90;;;;;;5047754;28;20055;-77
2021/04/03 02:39:31;;;;;;;8.25;0.70;;;5.40;99.90;;;;;;5047270;28;20465;-76
2021/04/03 02:42:08;;;;;;;12.02;0.50;;;5.40;99.90;;;;;;5047900;28;20063;-77
2021/04/03 02:44:35;;;;;;;15.23;0.80;;;5.40;99.90;;;;;;5048038;28;20025;-77
2021/04/03 02:47:12;;;;;;;14.98;0.90;;;5.40;99.90;;;;;;5047421;28;20032;-76
2021/04/03 02:49:51;;;;;;;12.20;0.77;;;5.40;99.90;;;;;;5047633;28;20033;-76
2021/04/03 02:52:20;;;;;;;7.40;0.50;;;5.40;99.90;;;;;;5060367;28;20032;-77
2021/04/03 02:54:49;;;;;;;9.18;0.50;;;5.40;99.90;;;;;;5031211;28;20033;-76
2021/04/03 02:57:16;;;;;;;16.20;0.88;;;5.40;99.90;;;;;;5031260;28;20477;-77
2021/04/03 02:59:54;;;;;;;6.47;0.68;;;5.40;99.90;;;;;;5031213;28;20021;-76
2021/04/03 03:02:23;;;;;;;12.23;0.88;;;5.40;99.90;;;;;;5030618;28;20033;-77
2021/04/03 03:04:51;;;;;;;10.00;0.65;;;5.40;99.90;;;;;;5065559;28;20025;-76
2021/04/03 03:07:20;;;;;;;13.30;1.15;;;5.40;99.90;;;;;;5047197;28;20049;-76
2021/04/03 03:09:49;;;;;;;9.43;1.00;;;5.40;99.90;;;;;;5031266;28;20049;-77
2021/04/03 03:12:17;;;;;;;14.65;0.82;;;5.40;99.90;;;;;;5047619;28;20047;-76
2021/04/03 03:14:46;;;;;;;;;;;5.30;99.90;;;;;;5031718;28;20033;-76
2021/04/03 03:17:13;;;;;;;10.98;0.70;;;5.30;99.90;;;;;;5047308;28;19909;-76
2021/04/03 03:19:44;;;;;;;10.75;0.60;;;5.30;99.90;;;;;;5047185;28;20036;-77
2021/04/03 03:22:11;;;;;;;16.05;1.10;;;5.20;99.90;;;;;;5047380;28;20052;-77
2021/04/03 03:24:38;;;;;;;14.25;1.05;;;5.20;99.90;;;;;;5031174;28;20494;-77
2021/04/03 03:27:06;;;;;;;17.45;0.60;;;5.20;99.90;;;;;;5048077;28;20040;-77
2021/04/03 03:29:34;;;;;;;15.73;0.93;;;5.20;99.90;;;;;;5066003;28;20051;-77
2021/04/03 03:32:01;;;;;;;13.27;0.82;;;5.10;99.90;;;;;;5064605;28;20021;-77
2021/04/03 03:34:28;;;;;;;11.15;1.08;;;5.10;99.90;;;;;;5047076;28;20055;-76
2021/04/03 03:36:59;;;;;;;;;;;5.10;99.90;;;;;;5065422;28;20043;-77
2021/04/03 03:39:30;;;;;;;16.50;0.90;;;4.90;99.90;;;;;;5015751;28;19988;-76
2021/04/03 03:41:57;;;;;;;12.75;0.70;;;4.90;99.90;;;;;;5047203;28;20029;-77
2021/04/03 03:44:26;;;;;;;16.27;0.93;;;4.90;99.90;;;;;;5047121;28;20394;-77
2021/04/03 03:46:52;;;;;;;17.02;1.73;;;4.80;99.90;;;;;;5063909;28;20040;-77
2021/04/03 03:49:18;;;;;;;14.10;1.35;;;4.70;99.90;;;;;;5064987;28;20017;-76
2021/04/03 03:51:44;;;;;;;13.02;1.00;;;4.70;99.90;;;;;;5039773;28;20029;-77
2021/04/03 03:54:13;;;;;;;17.67;1.10;;;4.60;99.90;;;;;;5031015;28;20037;-77
2021/04/03 03:56:39;;;;;;;13.32;0.70;;;4.60;99.90;;;;;;5048818;28;20467;-77
2021/04/03 03:59:06;;;;;;;15.73;0.50;;;4.50;99.90;;;;;;5030864;28;20089;-77
2021/04/03 04:01:33;;;;;;;14.63;0.70;;;4.50;99.90;;;;;;5042308;28;20033;-77
2021/04/03 04:04:02;;;;;;;17.10;0.80;;;4.40;99.90;;;;;;5067644;28;20025;-77
2021/04/03 04:06:29;;;;;;;13.20;0.70;;;4.30;99.90;;;;;;5068012;28;20037;-77
2021/04/03 04:08:55;;;;;;;13.45;1.33;;;4.30;99.90;;;;;;5049850;28;20074;-77
2021/04/03 04:11:23;;;;;;;10.35;0.80;;;4.20;99.90;;;;;;5068674;28;20105;-77
2021/04/03 04:13:56;;;;;;;11.43;0.30;;;4.20;99.90;;;;;;5050626;28;20032;-76
2021/04/03 04:16:31;;;;;;;11.85;0.60;;;4.10;99.90;;;;;;5066968;28;20032;-76
2021/04/03 04:18:58;;;;;;;13.77;0.98;;;4.10;99.90;;;;;;5050487;28;20032;-77
2021/04/03 04:21:25;;;;;;;11.00;0.60;;;4.10;99.90;;;;;;5050242;28;20025;-77
2021/04/03 04:23:51;;;;;;;12.38;0.68;;;4.00;99.90;;;;;;5050570;28;20397;-77
2021/04/03 04:26:18;;;;;;;14.10;0.93;;;4.00;99.90;;;;;;5033819;28;20040;-77
2021/04/03 04:28:48;;;;;;;15.57;1.25;;;4.00;99.90;;;;;;5043128;28;20032;-76
2021/04/03 04:31:18;;;;;;;18.00;1.13;;;3.90;99.90;;;;;;5048244;28;20568;-77
2021/04/03 04:33:53;;;;;;;11.88;0.98;;;4.00;99.90;;;;;;5048270;28;20052;-77
2021/04/03 04:36:20;;;;;;;18.98;1.38;;;4.10;99.90;;;;;;5030073;28;20389;-77
2021/04/03 04:38:47;;;;;;;11.55;0.60;;;4.20;99.90;;;;;;5030210;28;20037;-77
2021/04/03 04:41:14;;;;;;;7.85;0.70;;;4.20;99.90;;;;;;5030285;28;20056;-76
2021/04/03 04:43:41;;;;;;;9.18;1.00;;;4.20;99.90;;;;;;5030401;28;20124;-77
2021/04/03 04:46:07;;;;;;;15.88;0.80;;;4.30;99.90;;;;;;5030095;28;20038;-77
2021/04/03 04:48:41;;;;;;;12.80;1.50;;;4.30;99.90;;;;;;5015043;28;20083;-77
2021/04/03 04:51:14;;;;;;;9.45;0.80;;;4.30;99.90;;;;;;5036691;28;20021;-76
2021/04/03 04:53:40;;;;;;;16.13;1.10;;;4.30;99.90;;;;;;5050010;28;20124;-77
2021/04/03 04:56:07;;;;;;;24.90;1.00;;;4.40;99.90;;;;;;5050018;28;20063;-77
2021/04/03 04:58:38;;;;;;;17.42;0.80;;;4.40;99.90;;;;;;5067362;28;20063;-76
2021/04/03 05:01:04;;;;;;;14.77;1.17;;;4.40;99.90;;;;;;5048962;28;20323;-77
2021/04/03 05:03:43;;;;;;;13.80;1.50;;;4.40;99.90;;;;;;5049602;28;20109;-76
2021/04/03 05:06:09;;;;;;;13.82;0.95;;;4.50;99.90;;;;;;5067162;28;20060;-77
2021/04/03 05:08:34;;;;;;;14.80;1.33;;;4.50;99.90;;;;;;5049302;28;20056;-77
2021/04/03 05:11:00;;;;;;;17.27;1.50;;;4.50;99.90;;;;;;5049463;28;20036;-77
2021/04/03 05:13:26;;;;;;;25.63;1.58;;;4.60;99.90;;;;;;5067313;28;20057;-77
2021/04/03 05:15:55;;;;;;;18.38;0.90;;;4.60;99.90;;;;;;5067227;28;20071;-76
2021/04/03 05:18:20;;;;;;;20.15;2.90;;;4.60;99.90;;;;;;5067181;28;20024;-76
2021/04/03 05:20:46;;;;;;;20.52;2.13;;;4.60;99.90;;;;;;5049209;28;20394;-77
2021/04/03 05:23:12;;;;;;;16.55;1.83;;;4.70;99.90;;;;;;5049027;28;20096;-77
2021/04/03 05:25:37;;;;;;;20.60;1.23;;;4.70;99.90;;;;;;5049156;28;20432;-77
2021/04/03 05:28:03;;;;;;;12.93;0.60;;;4.70;99.90;;;;;;5047929;28;20032;-77
2021/04/03 05:30:29;;;;;;;17.95;1.75;;;4.70;99.90;;;;;;5066245;28;20078;-76
2021/04/03 05:32:55;;;;;;;24.55;2.60;;;4.70;99.90;;;;;;5048318;28;20051;-77
2021/04/03 05:35:20;;;;;;;26.02;1.40;;;4.80;99.90;;;;;;5066139;28;20039;-77
2021/04/03 05:37:46;;;;;;;21.73;1.27;;;4.90;99.90;;;;;;5064845;28;20287;-76
2021/04/03 05:40:12;;;;;;;22.92;1.52;;;4.90;99.90;;;;;;5048274;28;20029;-77
2021/04/03 05:42:42;;;;;;;19.45;1.67;;;4.90;99.90;;;;;;5048274;28;20041;-76
2021/04/03 05:45:08;;;;;;;22.83;1.67;;;4.90;99.90;;;;;;5066285;28;20037;-77
2021/04/03 05:47:35;;;;;;;19.15;1.25;;;4.90;99.90;;;;;;5067360;28;20105;-77
2021/04/03 05:50:04;;;;;;;24.42;2.50;;;5.00;99.90;;;;;;5049930;28;20041;-77
2021/04/03 05:52:29;;;;;;;27.83;1.65;;;5.00;99.90;;;;;;5049391;28;20030;-77
2021/04/03 05:54:55;;;;;;;17.80;1.00;;;5.00;99.90;;;;;;5046270;28;20093;-77
2021/04/03 05:57:23;;;;;;;20.42;2.45;;;5.00;99.90;;;;;;5028079;28;20461;-77
2021/04/03 05:59:49;;;;;;;15.50;1.20;;;5.00;99.90;;;;;;5028273;28;20068;-76
2021/04/03 06:02:15;;;;;;;30.95;3.30;;;5.10;99.90;;;;;;5045761;28;20029;-77
2021/04/03 06:04:41;;;;;;;19.65;1.85;;;5.10;99.90;;;;;;5019716;28;20037;-77
2021/04/03 06:07:06;;;;;;;20.90;2.17;;;5.10;99.90;;;;;;5065142;28;20051;-77
2021/04/03 06:09:32;;;;;;;27.63;2.30;;;5.10;99.90;;;;;;5031372;28;20025;-77
2021/04/03 06:11:58;;;;;;;21.13;1.30;;;5.20;99.90;;;;;;5047734;28;20101;-77
2021/04/03 06:14:23;;;;;;;28.60;2.78;;;5.20;99.90;;;;;;5065612;28;20029;-77
2021/04/03 06:16:50;;;;;;;21.98;2.20;;;5.20;99.90;;;;;;5047531;28;20037;-77
2021/04/03 06:19:19;;;;;;;15.48;1.10;;;5.20;99.90;;;;;;5047763;28;20045;-76
2021/04/03 06:21:54;;;;;;;23.80;2.35;;;5.20;99.90;;;;;;5047341;28;20043;-77
2021/04/03 06:24:31;;;;;;;13.00;1.38;;;5.30;99.90;;;;;;5046774;28;20032;-77
2021/04/03 06:27:11;;;;;;;15.77;1.35;;;5.30;99.90;;;;;;5047486;28;20040;-77
2021/04/03 06:29:50;;;;;;;24.33;2.00;;;5.40;99.90;;;;;;5047514;28;20452;-77
2021/04/03 06:32:26;;;;;;;24.63;1.75;;;5.40;99.90;;;;;;5065478;28;20033;-76
2021/04/03 06:34:53;;;;;;;28.60;2.45;;;5.40;99.90;;;;;;5047266;28;20025;-76
2021/04/03 06:37:28;;;;;;;22.10;1.38;;;5.50;99.90;;;;;;5065385;28;20432;-77
2021/04/03 06:40:01;;;;;;;20.33;1.35;;;5.50;99.90;;;;;;5047140;28;20039;-77
2021/04/03 06:42:39;;;;;;;15.18;1.30;;;5.60;99.90;;;;;;5030682;28;20060;-77
2021/04/03 06:45:36;;;;;;;16.77;2.35;;;5.60;99.90;;;;;;5029542;28;20049;-77
2021/04/03 06:48:14;;;;;;;25.88;2.03;;;5.60;99.90;;;;;;5045364;28;20112;-77
2021/04/03 06:50:47;;;;;;;19.83;1.85;;;5.70;99.90;;;;;;5037388;28;20440;-77
2021/04/03 06:53:18;;;;;;;22.17;2.03;;;5.80;99.90;;;;;;5043804;28;20060;-78
2021/04/03 06:55:48;;;;;;;19.88;1.60;;;5.90;99.90;;;;;;5042691;28;20043;-78
2021/04/03 06:58:15;;;;;;;19.85;1.92;;;5.90;99.90;;;;;;5046916;28;20123;-77
2021/04/03 07:00:41;;;;;;;11.40;0.57;;;6.00;99.90;;;;;;5030602;28;20040;-77
2021/04/03 07:03:20;;;;;;;23.30;1.58;;;6.10;99.90;;;;;;5065161;28;20031;-78
2021/04/03 07:05:49;;;;;;;25.20;2.03;;;6.00;99.90;;;;;;5040293;28;20354;-78
2021/04/03 07:08:16;;;;;;;16.30;1.30;;;6.00;99.90;;;;;;5039832;28;20058;-78
2021/04/03 07:10:42;;;;;;;31.20;3.20;;;6.00;99.90;;;;;;5026111;28;20026;-77
2021/04/03 07:13:12;;;;;;;16.88;2.05;;;6.00;99.90;;;;;;5049935;28;20120;-78
2021/04/03 07:15:38;;;;;;;26.85;2.00;;;6.00;99.90;;;;;;5043137;28;20033;-78
2021/04/03 07:18:08;;;;;;;27.52;2.72;;;6.10;99.90;;;;;;5044620;28;20056;-77
2021/04/03 07:20:34;;;;;;;;;;;6.10;99.90;;;;;;5026954;28;20064;-77
2021/04/03 07:23:01;;;;;;;21.20;1.95;;;6.30;99.90;;;;;;5043406;28;20123;-78
2021/04/03 07:25:30;;;;;;;20.45;1.48;;;6.20;99.90;;;;;;5045160;28;20037;-78
2021/04/03 07:27:56;;;;;;;22.55;2.20;;;6.30;99.90;;;;;;5047037;28;20417;-77
2021/04/03 07:30:34;;;;;;;36.67;3.42;;;6.20;99.90;;;;;;5047311;28;20017;-77
2021/04/03 07:33:25;;;;;;;21.88;1.42;;;6.30;99.90;;;;;;5048533;28;20029;-77
2021/04/03 07:35:53;;;;;;;19.77;1.65;;;6.40;99.90;;;;;;5048090;28;20049;-78
2021/04/03 07:38:22;;;;;;;19.55;1.73;;;6.30;99.90;;;;;;5047703;28;20029;-78
2021/04/03 07:40:56;;;;;;;15.75;1.75;;;6.50;99.90;;;;;;5046713;28;20025;-78
2021/04/03 07:43:41;;;;;;;19.80;1.73;;;6.70;99.90;;;;;;5046966;28;20048;-78
2021/04/03 07:46:26;;;;;;;15.00;1.38;;;6.70;99.90;;;;;;5046825;28;20057;-78
2021/04/03 07:48:59;;;;;;;20.67;1.73;;;6.60;99.90;;;;;;5045266;28;20048;-78
2021/04/03 07:51:25;;;;;;;16.88;1.45;;;6.50;99.90;;;;;;5046499;28;20116;-78
2021/04/03 07:53:59;;;;;;;18.05;1.95;;;6.60;99.90;;;;;;5048126;28;20531;-78
2021/04/03 07:56:46;;;;;;;20.40;2.42;;;6.90;99.90;;;;;;5046675;28;20435;-78
2021/04/03 07:59:11;;;;;;;40.28;12.30;;;6.90;99.90;;;;;;5032903;28;20041;-78
2021/04/03 08:01:39;;;;;;;26.90;8.60;;;6.90;99.90;;;;;;5027945;28;20030;-77
2021/04/03 08:04:06;;;;;;;35.75;7.93;;;7.10;99.90;;;;;;5027771;28;20033;-78
2021/04/03 08:06:36;;;;;;;24.75;4.18;;;7.00;99.90;;;;;;5042769;28;20031;-78
2021/04/03 08:09:05;;;;;;;17.10;2.65;;;7.00;99.90;;;;;;5033398;28;20045;-78
2021/04/03 08:11:31;;;;;;;19.38;2.17;;;7.10;99.90;;;;;;5049405;28;20033;-78
2021/04/03 08:13:58;;;;;;;18.02;1.50;;;7.10;99.90;;;;;;5067642;28;20120;-77
2021/04/03 08:16:27;;;;;;;17.02;1.40;;;7.30;99.90;;;;;;5033160;28;20056;-78
2021/04/03 08:18:55;;;;;;;17.83;1.38;;;7.40;99.90;;;;;;5064263;28;20036;-78
2021/04/03 08:21:22;;;;;;;24.67;2.35;;;7.60;99.90;;;;;;5053925;28;20022;-78
2021/04/03 08:23:51;;;;;;;21.27;2.25;;;7.30;99.90;;;;;;5029859;28;20056;-78
2021/04/03 08:26:18;;;;;;;24.23;2.72;;;7.30;99.90;;;;;;5013045;28;20041;-78
2021/04/03 08:28:44;;;;;;;24.13;2.10;;;7.30;99.90;;;;;;5013533;28;20413;-78
2021/04/03 08:31:27;;;;;;;13.95;1.58;;;7.60;99.90;;;;;;5047336;28;20080;-78
2021/04/03 08:33:55;;;;;;;15.82;1.40;;;7.70;99.90;;;;;;5045946;28;20040;-78
2021/04/03 08:36:33;;;;;;;20.52;3.78;;;7.60;99.90;;;;;;5011676;28;20101;-78
2021/04/03 08:39:07;;;;;;;22.10;2.60;;;7.30;99.90;;;;;;5047219;28;20083;-77
2021/04/03 08:41:35;;;;;;;23.58;2.67;;;7.30;99.90;;;;;;5047305;28;20030;-78
2021/04/03 08:44:01;;;;;;;17.40;2.05;;;7.40;99.90;;;;;;5047438;28;20432;-78
2021/04/03 08:46:27;;;;;;;14.82;2.25;;;7.50;99.90;;;;;;5029244;28;20045;-77
2021/04/03 08:48:57;;;;;;;17.15;1.38;;;7.80;99.90;;;;;;5047283;28;20033;-78
2021/04/03 08:51:24;;;;;;;19.50;1.83;;;8.10;99.90;;;;;;5055078;28;20036;-78
2021/04/03 08:53:55;;;;;;;24.42;2.70;;;8.40;99.90;;;;;;5049351;28;20029;-78
2021/04/03 08:56:35;;;;;;;12.25;1.63;;;8.10;99.90;;;;;;5032429;28;20087;-78
2021/04/03 08:59:05;;;;;;;23.75;2.92;;;8.00;99.90;;;;;;5036769;28;20034;-78
2021/04/03 09:01:34;;;;;;;16.88;2.03;;;7.90;99.90;;;;;;5028796;28;20029;-76
2021/04/03 09:04:05;;;;;;;22.95;4.07;;;7.60;99.90;;;;;;5049480;28;20025;-78
2021/04/03 09:07:03;;;;;;;23.70;3.47;;;7.70;99.90;;;;;;5058772;22;20107;-78
2021/04/03 09:09:29;;;;;;;20.88;2.67;;;8.10;99.90;;;;;;5023351;28;20144;-77
2021/04/03 09:12:06;;;;;;;18.90;1.75;;;8.10;99.90;;;;;;5041778;28;20523;-76
2021/04/03 09:14:37;;;;;;;15.30;2.35;;;8.20;99.90;;;;;;5064008;28;20042;-78
2021/04/03 09:17:16;;;;;;;21.02;2.55;;;8.00;99.90;;;;;;5029174;28;20038;-77
2021/04/03 09:19:45;;;;;;;17.15;2.00;;;8.00;99.90;;;;;;5047659;28;20044;-77
2021/04/03 09:22:17;;;;;;;17.48;2.00;;;8.30;99.90;;;;;;5058243;28;20028;-77
2021/04/03 09:25:03;;;;;;;15.88;2.40;;;8.00;99.90;;;;;;5066943;28;20033;-77
2021/04/03 09:27:28;;;;;;;16.35;2.55;;;8.00;99.90;;;;;;5048661;28;20041;-77
2021/04/03 09:30:07;;;;;;;17.10;2.20;;;8.10;99.90;;;;;;5066008;28;20043;-77
2021/04/03 09:32:43;;;;;;;20.42;1.95;;;8.00;99.90;;;;;;5049052;28;20041;-77
2021/04/03 09:35:11;;;;;;;21.27;2.22;;;8.10;99.90;;;;;;5066748;28;20055;-76
2021/04/03 09:37:37;;;;;;;21.27;2.58;;;8.10;99.90;;;;;;5066775;28;20131;-77
2021/04/03 09:40:07;;;;;;;20.83;2.70;;;8.10;99.90;;;;;;5048560;28;20033;-77
2021/04/03 09:42:34;;;;;;;16.98;2.08;;;8.20;99.90;;;;;;5066412;28;20025;-77
2021/04/03 09:45:03;;;;;;;17.90;2.03;;;8.40;99.90;;;;;;5048465;28;20028;-77
2021/04/03 09:47:29;;;;;;;29.13;2.70;;;8.60;99.90;;;;;;5048269;28;20049;-77
2021/04/03 09:49:56;;;;;;;11.25;1.50;;;8.30;99.90;;;;;;5066359;28;20343;-77
2021/04/03 09:52:21;;;;;;;16.23;2.20;;;8.50;99.90;;;;;;5066024;28;20036;-78
2021/04/03 09:54:48;;;;;;;23.65;2.65;;;8.80;99.90;;;;;;5066234;28;20033;-77
2021/04/03 09:57:15;;;;;;;18.40;2.53;;;8.70;99.90;;;;;;5047716;28;20079;-77
2021/04/03 09:59:42;;;;;;;17.67;2.08;;;8.60;99.90;;;;;;5048345;28;20029;-77
2021/04/03 10:02:10;;;;;;;15.98;1.85;;;8.90;99.90;;;;;;5047941;28;20033;-77
2021/04/03 10:04:36;;;;;;;20.35;1.83;;;9.30;99.90;;;;;;5065934;28;20033;-77
2021/04/03 10:07:02;;;;;;;17.38;2.22;;;9.10;99.90;;;;;;5047507;28;20102;-77
2021/04/03 10:09:28;;;;;;;20.92;2.70;;;8.90;99.90;;;;;;5065766;28;20089;-77
2021/04/03 10:11:55;;;;;;;21.33;2.58;;;9.20;99.90;;;;;;5064263;28;20029;-77
2021/04/03 10:14:22;;;;;;;18.08;1.95;;;9.30;99.90;;;;;;5047607;28;20028;-79
2021/04/03 10:16:48;;;;;;;9.27;1.83;;;8.80;99.90;;;;;;5047475;28;20104;-77
2021/04/03 10:19:15;;;;;;;14.43;1.50;;;8.80;99.90;;;;;;5031290;28;20044;-78
2021/04/03 10:21:42;;;;;;;10.52;1.30;;;9.10;99.90;;;;;;5047495;28;20086;-78
2021/04/03 10:24:08;;;;;;;17.55;2.00;;;9.60;99.90;;;;;;5065138;28;20032;-78
2021/04/03 10:26:34;;;;;;;14.38;1.83;;;9.80;99.90;;;;;;5064665;28;20040;-77
2021/04/03 10:28:59;;;;;;;17.88;1.77;;;10.20;99.90;;;;;;5027510;28;20121;-77
2021/04/03 10:31:25;;;;;;;13.45;1.83;;;10.40;99.90;;;;;;5047019;28;20021;-78
2021/04/03 10:33:51;;;;;;;13.60;1.42;;;10.60;99.90;;;;;;5065436;28;20032;-78
2021/04/03 10:36:16;;;;;;;15.35;1.98;;;10.30;99.90;;;;;;5030358;28;20033;-78
2021/04/03 10:38:45;;;;;;;13.85;2.10;;;10.00;99.90;;;;;;5029530;28;20058;-78
2021/04/03 10:41:14;;;;;;;19.85;2.30;;;10.20;99.90;;;;;;5041693;28;20108;-78
2021/04/03 10:43:40;;;;;;;12.18;1.60;;;10.10;99.90;;;;;;5045137;28;20452;-78
2021/04/03 10:46:06;;;;;;;15.20;1.63;;;10.50;99.90;;;;;;5045854;28;20052;-77
2021/04/03 10:48:33;;;;;;;9.77;0.85;;;10.30;99.90;;;;;;5033345;28;20031;-77
2021/04/03 10:50:59;;;;;;;11.90;1.90;;;10.60;99.90;;;;;;5065019;28;20025;-78
2021/04/03 10:53:25;;;;;;;11.77;1.20;;;11.10;99.90;;;;;;5063899;28;20029;-77
2021/04/03 10:55:51;;;;;;;10.18;1.50;;;11.60;99.90;;;;;;5029604;28;20032;-80
2021/04/03 10:58:16;;;;;;;17.30;1.85;;;11.40;99.90;;;;;;5046324;28;20480;-76
2021/04/03 11:00:42;;;;;;;13.93;1.77;;;10.90;99.90;;;;;;5064176;28;20025;-77
2021/04/03 11:03:08;;;;;;;15.95;2.47;;;11.40;99.90;;;;;;5064778;28;20036;-77
2021/04/03 11:05:54;;;;;;;11.05;1.20;;;11.30;99.90;;;;;;5058879;28;20036;-77
2021/04/03 11:08:19;;;;;;;14.27;1.30;;;11.70;99.90;;;;;;4986635;28;20057;-77
2021/04/03 11:10:45;;;;;;;11.27;1.20;;;11.40;99.90;;;;;;4986812;28;20446;-77
2021/04/03 11:13:11;;;;;;;16.60;1.80;;;11.30;99.90;;;;;;5003228;28;20149;-77
2021/04/03 11:15:36;;;;;;;6.25;1.17;;;11.30;99.90;;;;;;4986745;28;20057;-78
2021/04/03 11:18:02;;;;;;;14.93;2.03;;;11.40;99.90;;;;;;5002197;28;20031;-78
2021/04/03 11:20:28;;;;;;;12.48;1.50;;;11.20;99.90;;;;;;4986292;28;20071;-77
2021/04/03 11:22:54;;;;;;;11.85;1.50;;;11.50;99.90;;;;;;5002140;28;20034;-77
2021/04/03 11:25:19;;;;;;;6.85;1.00;;;11.50;99.90;;;;;;5003062;28;20084;-77
2021/04/03 11:27:45;;;;;;;10.07;1.38;;;11.20;99.90;;;;;;5001629;28;20045;-77
2021/04/03 11:30:14;;;;;;;11.15;1.67;;;11.70;99.90;;;;;;5002808;28;20480;-77
2021/04/03 11:32:47;;;;;;;12.48;1.88;;;12.00;99.90;;;;;;5002861;28;20058;-77
2021/04/03 11:35:15;;;;;;;10.75;1.08;;;11.60;99.90;;;;;;5002849;28;20070;-77
2021/04/03 11:37:41;;;;;;;9.88;1.63;;;12.20;99.90;;;;;;5002883;28;20027;-77
2021/04/03 11:40:09;;;;;;;6.68;0.80;;;12.40;99.90;;;;;;5002894;28;20105;-77
2021/04/03 11:42:35;;;;;;;15.77;1.73;;;12.70;99.90;;;;;;5003012;28;20065;-77
2021/04/03 11:45:01;;;;;;;14.32;1.80;;;11.40;99.90;;;;;;5023730;28;20045;-77
2021/04/03 11:47:27;;;;;;;8.30;0.90;;;10.90;99.90;;;;;;5064221;28;20097;-77
2021/04/03 11:49:56;;;;;;;13.20;1.30;;;11.30;99.90;;;;;;5064589;28;20044;-77
2021/04/03 11:52:22;;;;;;;11.33;1.13;;;11.80;99.90;;;;;;5029470;28;20472;-77
2021/04/03 11:54:48;;;;;;;4.88;0.88;;;11.80;99.90;;;;;;5046690;28;20029;-77
2021/04/03 11:57:13;;;;;;;8.00;0.80;;;11.90;99.90;;;;;;5045920;28;20048;-77
2021/04/03 11:59:40;;;;;;;9.13;0.93;;;12.00;99.90;;;;;;5054290;28;20029;-77
2021/04/03 12:02:05;;;;;;;12.02;1.40;;;12.50;99.90;;;;;;5046600;28;20032;-78
2021/04/03 12:04:31;;;;;;;5.45;0.82;;;12.10;99.90;;;;;;5038736;28;20031;-77
2021/04/03 12:06:57;;;;;;;10.30;1.05;;;12.40;99.90;;;;;;5063106;28;20151;-78
2021/04/03 12:09:22;;;;;;;9.20;1.30;;;12.10;99.90;;;;;;5046285;28;20028;-77
2021/04/03 12:11:48;;;;;;;10.60;1.27;;;12.10;99.90;;;;;;5048882;28;20043;-77
2021/04/03 12:14:13;;;;;;;11.10;1.85;;;11.70;99.90;;;;;;5050200;28;20052;-78
2021/04/03 12:16:39;;;;;;;8.20;0.63;;;11.90;99.90;;;;;;5051441;28;20093;-77
2021/04/03 12:19:05;;;;;;;7.03;0.68;;;12.40;99.90;;;;;;5049335;28;20033;-77
2021/04/03 12:21:31;;;;;;;6.72;0.73;;;12.50;99.90;;;;;;5057279;28;20063;-77
2021/04/03 12:23:59;;;;;;;6.57;0.75;;;12.70;99.90;;;;;;5049370;28;20392;-78
2021/04/03 12:26:25;;;;;;;8.25;1.55;;;13.20;99.90;;;;;;5045812;28;20454;-79
2021/04/03 12:28:51;;;;;;;8.80;0.85;;;13.00;99.90;;;;;;5067374;28;20097;-77
2021/04/03 12:31:16;;;;;;;6.38;1.45;;;12.50;99.90;;;;;;5066951;28;20021;-78
2021/04/03 12:33:43;;;;;;;9.40;1.40;;;12.70;99.90;;;;;;5066795;28;20033;-78
2021/04/03 12:36:08;;;;;;;5.57;1.00;;;12.20;99.90;;;;;;5046139;28;20036;-77
2021/04/03 12:38:35;;;;;;;5.68;0.60;;;12.40;99.90;;;;;;5063353;28;20029;-78
2021/04/03 12:41:01;;;;;;;8.10;1.10;;;13.00;99.90;;;;;;5040682;28;20029;-78
2021/04/03 12:43:27;;;;;;;15.25;1.55;;;12.40;99.90;;;;;;5026395;28;20025;-77
2021/04/03 12:45:53;;;;;;;6.50;0.70;;;12.20;99.90;;;;;;5056909;28;20029;-77
2021/04/03 12:48:22;;;;;;;7.22;0.80;;;12.50;99.90;;;;;;5035649;28;20044;-78
2021/04/03 12:50:50;;;;;;;9.43;1.17;;;12.50;99.90;;;;;;5055666;28;20037;-77
2021/04/03 12:53:16;;;;;;;7.55;1.02;;;12.80;99.90;;;;;;5057621;28;20052;-77
2021/04/03 12:55:42;;;;;;;4.35;0.63;;;13.20;99.90;;;;;;5038423;28;20021;-77
2021/04/03 12:58:07;;;;;;;8.90;1.40;;;13.70;99.90;;;;;;5061908;28;20056;-77